sensor_id;sensor_type;location;lat;lon;timestamp;pressure;altitude;pressure_sealevel;temperature;humidity
17781;BME280;8498;52.516;13.790;2023-02-15T00:01:26;102716.84;;;3.92;87.91
17781;BME280;8498;52.516;13.790;2023-02-15T00:06:49;102724.84;;;3.77;88.20
17781;BME280;8498;52.516;13.790;2023-02-15T00:12:13;102725.78;;;3.64;88.76
17781;BME280;8498;52.516;13.790;2023-02-15T00:17:35;102711.91;;;3.50;89.25
17781;BME280;8498;52.516;13.790;2023-02-15T00:22:58;102717.28;;;3.30;89.02
17781;BME280;8498;52.516;13.790;2023-02-15T00:28:20;102713.00;;;3.11;89.04
17781;BME280;8498;52.516;13.790;2023-02-15T00:33:44;102706.06;;;2.96;89.35
17781;BME280;8498;52.516;13.790;2023-02-15T00:39:07;102698.22;;;2.85;89.72
17781;BME280;8498;52.516;13.790;2023-02-15T00:44:30;102694.75;;;2.74;89.85
17781;BME280;8498;52.516;13.790;2023-02-15T00:49:52;102689.56;;;2.68;89.99
17781;BME280;8498;52.516;13.790;2023-02-15T00:55:15;102679.09;;;2.56;90.13
17781;BME280;8498;52.516;13.790;2023-02-15T01:00:38;102682.59;;;2.53;90.48
17781;BME280;8498;52.516;13.790;2023-02-15T01:06:02;102683.50;;;2.45;90.09
17781;BME280;8498;52.516;13.790;2023-02-15T01:11:27;102687.00;;;2.32;90.10
17781;BME280;8498;52.516;13.790;2023-02-15T01:16:52;102686.16;;;2.19;90.46
17781;BME280;8498;52.516;13.790;2023-02-15T01:22:15;102681.81;;;2.06;90.59
17781;BME280;8498;52.516;13.790;2023-02-15T01:27:37;102668.72;;;2.04;90.39
17781;BME280;8498;52.516;13.790;2023-02-15T01:33:00;102668.72;;;1.95;90.33
17781;BME280;8498;52.516;13.790;2023-02-15T01:38:25;102660.00;;;1.84;90.66
17781;BME280;8498;52.516;13.790;2023-02-15T01:43:58;102654.75;;;1.81;90.98
17781;BME280;8498;52.516;13.790;2023-02-15T01:49:24;102653.88;;;1.68;90.90
17781;BME280;8498;52.516;13.790;2023-02-15T01:54:48;102645.16;;;1.56;90.25
17781;BME280;8498;52.516;13.790;2023-02-15T02:00:11;102639.00;;;1.47;90.72
17781;BME280;8498;52.516;13.790;2023-02-15T02:05:35;102635.53;;;1.42;91.65
17781;BME280;8498;52.516;13.790;2023-02-15T02:10:58;102626.81;;;1.43;91.48
17781;BME280;8498;52.516;13.790;2023-02-15T02:34:37;102603.25;;;1.34;91.21
17781;BME280;8498;52.516;13.790;2023-02-15T02:51:02;102590.16;;;1.34;89.63
17781;BME280;8498;52.516;13.790;2023-02-15T02:56:31;102587.53;;;1.34;89.83
17781;BME280;8498;52.516;13.790;2023-02-15T03:02:21;102574.41;;;1.28;90.25
17781;BME280;8498;52.516;13.790;2023-02-15T03:07:47;102571.78;;;1.36;91.25
17781;BME280;8498;52.516;13.790;2023-02-15T03:13:13;102566.56;;;1.43;91.60
17781;BME280;8498;52.516;13.790;2023-02-15T03:18:43;102569.19;;;1.53;91.76
17781;BME280;8498;52.516;13.790;2023-02-15T03:24:21;102570.06;;;1.55;91.65
17781;BME280;8498;52.516;13.790;2023-02-15T03:29:52;102562.19;;;1.58;91.55
17781;BME280;8498;52.516;13.790;2023-02-15T03:35:15;102564.78;;;1.56;92.07
17781;BME280;8498;52.516;13.790;2023-02-15T03:40:40;102559.56;;;1.56;91.79
17781;BME280;8498;52.516;13.790;2023-02-15T03:46:32;102546.47;;;1.52;91.32
17781;BME280;8498;52.516;13.790;2023-02-15T03:51:57;102542.97;;;1.46;91.22
17781;BME280;8498;52.516;13.790;2023-02-15T03:57:24;102529.03;;;1.44;91.42
17781;BME280;8498;52.516;13.790;2023-02-15T04:03:19;102530.78;;;1.39;92.46
17781;BME280;8498;52.516;13.790;2023-02-15T04:08:43;102537.75;;;1.37;91.89
17781;BME280;8498;52.516;13.790;2023-02-15T04:14:25;102535.13;;;1.37;91.28
17781;BME280;8498;52.516;13.790;2023-02-15T04:20:08;102518.56;;;1.32;91.52
17781;BME280;8498;52.516;13.790;2023-02-15T04:25:49;102517.69;;;1.29;90.88
17781;BME280;8498;52.516;13.790;2023-02-15T04:31:12;102514.19;;;1.25;91.04
17781;BME280;8498;52.516;13.790;2023-02-15T04:36:34;102520.31;;;1.21;90.76
17781;BME280;8498;52.516;13.790;2023-02-15T04:41:57;102511.59;;;1.19;90.12
17781;BME280;8498;52.516;13.790;2023-02-15T04:47:19;102515.06;;;1.15;90.64
17781;BME280;8498;52.516;13.790;2023-02-15T04:52:42;102506.34;;;1.07;89.82
17781;BME280;8498;52.516;13.790;2023-02-15T04:58:04;102501.97;;;0.97;89.81
17781;BME280;8498;52.516;13.790;2023-02-15T05:03:27;102492.38;;;0.96;89.52
17781;BME280;8498;52.516;13.790;2023-02-15T05:08:49;102481.94;;;0.90;90.01
17781;BME280;8498;52.516;13.790;2023-02-15T05:14:11;102480.16;;;0.80;89.77
17781;BME280;8498;52.516;13.790;2023-02-15T05:19:34;102478.41;;;0.85;90.50
17781;BME280;8498;52.516;13.790;2023-02-15T05:24:56;102470.59;;;0.89;92.24
17781;BME280;8498;52.516;13.790;2023-02-15T05:30:37;102471.44;;;0.96;92.59
17781;BME280;8498;52.516;13.790;2023-02-15T05:36:03;102466.22;;;0.99;92.70
17781;BME280;8498;52.516;13.790;2023-02-15T05:41:26;102464.47;;;0.98;93.60
17781;BME280;8498;52.516;13.790;2023-02-15T05:46:48;102454.88;;;1.03;94.33
17781;BME280;8498;52.516;13.790;2023-02-15T05:52:11;102467.97;;;1.09;94.20
17781;BME280;8498;52.516;13.790;2023-02-15T05:57:35;102461.00;;;1.13;94.57
17781;BME280;8498;52.516;13.790;2023-02-15T06:02:58;102455.75;;;1.11;95.26
17781;BME280;8498;52.516;13.790;2023-02-15T06:08:20;102463.56;;;1.25;94.97
17781;BME280;8498;52.516;13.790;2023-02-15T06:13:43;102456.59;;;1.30;95.07
17781;BME280;8498;52.516;13.790;2023-02-15T06:19:05;102453.97;;;1.25;94.84
17781;BME280;8498;52.516;13.790;2023-02-15T06:24:28;102442.63;;;1.25;95.88
17781;BME280;8498;52.516;13.790;2023-02-15T06:29:50;102441.78;;;1.24;95.74
17781;BME280;8498;52.516;13.790;2023-02-15T06:35:13;102443.53;;;1.22;95.90
17781;BME280;8498;52.516;13.790;2023-02-15T06:40:37;102442.63;;;1.31;95.74
17781;BME280;8498;52.516;13.790;2023-02-15T06:46:00;102442.59;;;1.38;95.93
17781;BME280;8498;52.516;13.790;2023-02-15T06:51:23;102439.16;;;1.35;96.28
17781;BME280;8498;52.516;13.790;2023-02-15T06:56:46;102435.63;;;1.45;96.56
17781;BME280;8498;52.516;13.790;2023-02-15T07:02:11;102436.47;;;1.50;96.01
17781;BME280;8498;52.516;13.790;2023-02-15T07:07:33;102441.72;;;1.48;95.93
17781;BME280;8498;52.516;13.790;2023-02-15T07:12:56;102432.06;;;1.61;95.72
17781;BME280;8498;52.516;13.790;2023-02-15T07:18:18;102430.28;;;1.74;95.59
17781;BME280;8498;52.516;13.790;2023-02-15T07:23:41;102424.13;;;1.84;95.27
17781;BME280;8498;52.516;13.790;2023-02-15T07:29:03;102401.44;;;1.83;94.98
17781;BME280;8498;52.516;13.790;2023-02-15T07:34:26;102405.75;;;1.92;94.08
17781;BME280;8498;52.516;13.790;2023-02-15T07:39:49;102405.75;;;1.95;94.26
17781;BME280;8498;52.516;13.790;2023-02-15T07:45:11;102400.47;;;2.01;93.70
17781;BME280;8498;52.516;13.790;2023-02-15T07:50:34;102397.00;;;1.94;93.51
17781;BME280;8498;52.516;13.790;2023-02-15T07:56:04;102397.13;;;1.67;94.21
17781;BME280;8498;52.516;13.790;2023-02-15T08:01:30;102390.94;;;1.77;94.79
17781;BME280;8498;52.516;13.790;2023-02-15T08:06:53;102385.78;;;1.62;94.49
17781;BME280;8498;52.516;13.790;2023-02-15T08:12:16;102375.22;;;1.83;94.85
17781;BME280;8498;52.516;13.790;2023-02-15T08:17:39;102375.13;;;1.98;94.99
17781;BME280;8498;52.516;13.790;2023-02-15T08:23:02;102378.66;;;1.94;95.02
17781;BME280;8498;52.516;13.790;2023-02-15T08:28:24;102376.00;;;2.00;94.91
17781;BME280;8498;52.516;13.790;2023-02-15T08:33:48;102362.81;;;2.15;95.56
17781;BME280;8498;52.516;13.790;2023-02-15T08:39:12;102362.75;;;2.25;94.74
17781;BME280;8498;52.516;13.790;2023-02-15T08:44:35;102360.91;;;2.36;94.88
17781;BME280;8498;52.516;13.790;2023-02-15T08:49:57;102359.88;;;2.53;94.33
17781;BME280;8498;52.516;13.790;2023-02-15T08:55:20;102359.00;;;2.53;93.73
17781;BME280;8498;52.516;13.790;2023-02-15T09:00:43;102352.06;;;2.49;94.07
17781;BME280;8498;52.516;13.790;2023-02-15T09:06:08;102350.16;;;2.66;94.68
17781;BME280;8498;52.516;13.790;2023-02-15T09:11:35;102344.75;;;2.84;94.66
17781;BME280;8498;52.516;13.790;2023-02-15T09:16:58;102343.88;;;2.82;94.41
17781;BME280;8498;52.516;13.790;2023-02-15T09:22:20;102337.72;;;2.88;95.29
17781;BME280;8498;52.516;13.790;2023-02-15T09:27:43;102339.25;;;3.09;94.60
17781;BME280;8498;52.516;13.790;2023-02-15T09:33:05;102339.13;;;3.21;93.89
17781;BME280;8498;52.516;13.790;2023-02-15T09:38:28;102334.00;;;3.09;94.79
17781;BME280;8498;52.516;13.790;2023-02-15T10:05:57;102324.81;;;3.45;93.72
17781;BME280;8498;52.516;13.790;2023-02-15T10:11:55;102320.97;;;3.72;94.33
17781;BME280;8498;52.516;13.790;2023-02-15T10:29:07;102321.44;;;3.99;93.00
17781;BME280;8498;52.516;13.790;2023-02-15T10:34:38;102311.69;;;4.06;93.28
17781;BME280;8498;52.516;13.790;2023-02-15T10:45:31;102287.25;;;4.53;91.58
17781;BME280;8498;52.516;13.790;2023-02-15T10:51:08;102279.63;;;4.87;91.91
17781;BME280;8498;52.516;13.790;2023-02-15T10:56:51;102280.88;;;5.11;89.95
17781;BME280;8498;52.516;13.790;2023-02-15T11:03:15;102268.66;;;5.08;88.96
17781;BME280;8498;52.516;13.790;2023-02-15T11:08:09;102256.22;;;5.15;89.17
17781;BME280;8498;52.516;13.790;2023-02-15T11:13:54;102260.38;;;5.27;88.66
17781;BME280;8498;52.516;13.790;2023-02-15T11:19:22;102264.06;;;5.60;88.16
17781;BME280;8498;52.516;13.790;2023-02-15T11:24:46;102248.59;;;5.81;86.45
17781;BME280;8498;52.516;13.790;2023-02-15T11:30:13;102248.47;;;5.87;86.14
17781;BME280;8498;52.516;13.790;2023-02-15T11:35:42;102234.59;;;5.79;85.58
17781;BME280;8498;52.516;13.790;2023-02-15T11:41:16;102227.22;;;6.94;82.86
17781;BME280;8498;52.516;13.790;2023-02-15T11:46:41;102212.66;;;7.95;78.35
17781;BME280;8498;52.516;13.790;2023-02-15T11:52:11;102195.28;;;8.39;74.98
17781;BME280;8498;52.516;13.790;2023-02-15T11:57:40;102192.28;;;8.50;74.49
17781;BME280;8498;52.516;13.790;2023-02-15T12:03:12;102187.78;;;9.00;73.17
17781;BME280;8498;52.516;13.790;2023-02-15T12:08:42;102188.28;;;9.77;71.16
17781;BME280;8498;52.516;13.790;2023-02-15T12:14:10;102190.16;;;9.75;68.84
17781;BME280;8498;52.516;13.790;2023-02-15T12:19:38;102183.81;;;9.99;68.41
17781;BME280;8498;52.516;13.790;2023-02-15T12:25:27;102178.66;;;10.38;66.69
17781;BME280;8498;52.516;13.790;2023-02-15T12:30:52;102180.34;;;10.19;66.95
17781;BME280;8498;52.516;13.790;2023-02-15T12:36:18;102175.66;;;10.85;64.38
17781;BME280;8498;52.516;13.790;2023-02-15T12:42:19;102166.75;;;11.23;62.57
17781;BME280;8498;52.516;13.790;2023-02-15T12:47:44;102167.47;;;11.46;61.87
17781;BME280;8498;52.516;13.790;2023-02-15T12:58:41;102136.66;;;11.77;59.97
17781;BME280;8498;52.516;13.790;2023-02-15T13:04:06;102129.38;;;12.16;58.95
17781;BME280;8498;52.516;13.790;2023-02-15T13:09:39;102111.13;;;12.08;59.12
17781;BME280;8498;52.516;13.790;2023-02-15T13:15:02;102101.28;;;12.43;57.49
17781;BME280;8498;52.516;13.790;2023-02-15T13:20:27;102094.53;;;12.69;56.40
17781;BME280;8498;52.516;13.790;2023-02-15T13:25:51;102083.94;;;12.67;56.65
17781;BME280;8498;52.516;13.790;2023-02-15T13:31:15;102080.19;;;12.56;56.73
17781;BME280;8498;52.516;13.790;2023-02-15T13:36:49;102070.97;;;12.61;56.88
17781;BME280;8498;52.516;13.790;2023-02-15T13:42:31;102063.75;;;13.10;55.41
17781;BME280;8498;52.516;13.790;2023-02-15T13:48:09;102058.00;;;12.38;56.69
17781;BME280;8498;52.516;13.790;2023-02-15T13:54:04;102045.50;;;11.90;59.31
17781;BME280;8498;52.516;13.790;2023-02-15T14:11:33;102032.22;;;12.38;57.28
17781;BME280;8498;52.516;13.790;2023-02-15T14:28:11;102033.13;;;12.55;56.48
17781;BME280;8498;52.516;13.790;2023-02-15T14:33:41;102034.31;;;12.49;56.98
17781;BME280;8498;52.516;13.790;2023-02-15T14:39:36;102036.31;;;12.28;58.45
17781;BME280;8498;52.516;13.790;2023-02-15T14:45:31;102029.41;;;12.08;58.55
17781;BME280;8498;52.516;13.790;2023-02-15T14:50:59;102032.22;;;12.23;58.98
17781;BME280;8498;52.516;13.790;2023-02-15T14:56:22;102030.03;;;12.13;59.35
17781;BME280;8498;52.516;13.790;2023-02-15T15:07:27;102028.13;;;11.83;59.57
17781;BME280;8498;52.516;13.790;2023-02-15T15:12:52;102020.56;;;11.56;61.93
17781;BME280;8498;52.516;13.790;2023-02-15T15:18:44;102014.84;;;11.47;62.56
17781;BME280;8498;52.516;13.790;2023-02-15T15:24:07;102006.75;;;11.14;64.07
17781;BME280;8498;52.516;13.790;2023-02-15T15:29:40;102008.69;;;10.74;66.37
17781;BME280;8498;52.516;13.790;2023-02-15T15:35:16;102022.66;;;10.21;68.78
17781;BME280;8498;52.516;13.790;2023-02-15T15:52:18;101999.16;;;9.31;72.89
17781;BME280;8498;52.516;13.790;2023-02-15T15:57:44;101997.19;;;9.14;73.91
17781;BME280;8498;52.516;13.790;2023-02-15T16:08:44;101997.19;;;8.49;75.86
17781;BME280;8498;52.516;13.790;2023-02-15T16:14:29;101998.44;;;8.16;77.15
17781;BME280;8498;52.516;13.790;2023-02-15T16:31:20;101996.41;;;7.49;79.58
17781;BME280;8498;52.516;13.790;2023-02-15T16:36:44;101998.50;;;7.13;80.97
17781;BME280;8498;52.516;13.790;2023-02-15T16:42:07;101990.16;;;6.99;81.13
17781;BME280;8498;52.516;13.790;2023-02-15T16:47:31;101980.41;;;6.75;81.54
17781;BME280;8498;52.516;13.790;2023-02-15T16:52:56;101980.25;;;6.51;83.26
17781;BME280;8498;52.516;13.790;2023-02-15T16:58:26;101984.19;;;6.37;83.87
17781;BME280;8498;52.516;13.790;2023-02-15T17:03:52;101983.03;;;6.16;84.17
17781;BME280;8498;52.516;13.790;2023-02-15T17:09:33;101982.81;;;5.93;84.96
17781;BME280;8498;52.516;13.790;2023-02-15T17:14:56;101977.03;;;5.80;86.26
17781;BME280;8498;52.516;13.790;2023-02-15T17:20:19;101996.09;;;5.57;86.35
17781;BME280;8498;52.516;13.790;2023-02-15T17:25:43;101987.84;;;5.37;86.86
17781;BME280;8498;52.516;13.790;2023-02-15T17:31:06;101990.72;;;5.28;87.05
17781;BME280;8498;52.516;13.790;2023-02-15T17:36:31;101999.22;;;5.03;87.64
17781;BME280;8498;52.516;13.790;2023-02-15T17:41:53;101997.78;;;4.90;87.71
17781;BME280;8498;52.516;13.790;2023-02-15T17:47:18;101977.84;;;4.78;87.92
17781;BME280;8498;52.516;13.790;2023-02-15T17:52:41;101977.34;;;4.63;87.94
17781;BME280;8498;52.516;13.790;2023-02-15T17:58:09;101981.38;;;4.40;89.05
17781;BME280;8498;52.516;13.790;2023-02-15T18:03:46;101987.56;;;4.38;89.19
17781;BME280;8498;52.516;13.790;2023-02-15T18:09:27;101981.41;;;4.37;87.78
17781;BME280;8498;52.516;13.790;2023-02-15T18:15:08;101971.28;;;4.21;88.31
17781;BME280;8498;52.516;13.790;2023-02-15T18:20:35;101973.44;;;4.02;88.71
17781;BME280;8498;52.516;13.790;2023-02-15T18:26:00;101969.25;;;3.92;89.19
17781;BME280;8498;52.516;13.790;2023-02-15T18:31:23;101976.53;;;3.78;89.65
17781;BME280;8498;52.516;13.790;2023-02-15T18:36:45;101963.53;;;3.72;89.02
17781;BME280;8498;52.516;13.790;2023-02-15T18:42:24;101969.06;;;3.56;89.17
17781;BME280;8498;52.516;13.790;2023-02-15T18:47:50;101966.56;;;3.50;90.03
17781;BME280;8498;52.516;13.790;2023-02-15T18:53:20;101968.34;;;3.48;89.64
17781;BME280;8498;52.516;13.790;2023-02-15T18:58:43;101964.16;;;3.38;90.17
17781;BME280;8498;52.516;13.790;2023-02-15T19:04:09;101946.88;;;3.25;90.42
17781;BME280;8498;52.516;13.790;2023-02-15T19:09:31;101940.75;;;3.23;90.82
17781;BME280;8498;52.516;13.790;2023-02-15T19:14:54;101939.16;;;3.16;90.30
17781;BME280;8498;52.516;13.790;2023-02-15T19:20:27;101946.31;;;3.08;90.19
17781;BME280;8498;52.516;13.790;2023-02-15T19:25:52;101941.22;;;2.99;90.48
17781;BME280;8498;52.516;13.790;2023-02-15T19:31:15;101930.75;;;2.95;90.20
17781;BME280;8498;52.516;13.790;2023-02-15T19:36:39;101934.38;;;2.88;90.13
17781;BME280;8498;52.516;13.790;2023-02-15T19:42:02;101916.97;;;2.83;89.95
17781;BME280;8498;52.516;13.790;2023-02-15T19:47:26;101919.81;;;2.69;90.39
17781;BME280;8498;52.516;13.790;2023-02-15T19:52:48;101918.25;;;2.59;91.29
17781;BME280;8498;52.516;13.790;2023-02-15T19:58:12;101919.16;;;2.55;91.89
17781;BME280;8498;52.516;13.790;2023-02-15T20:03:35;101911.19;;;2.61;91.14
17781;BME280;8498;52.516;13.790;2023-02-15T20:08:57;101910.38;;;2.57;90.32
17781;BME280;8498;52.516;13.790;2023-02-15T20:14:21;101898.22;;;2.50;90.49
17781;BME280;8498;52.516;13.790;2023-02-15T20:19:44;101896.63;;;2.42;91.29
17781;BME280;8498;52.516;13.790;2023-02-15T20:25:15;101880.03;;;2.40;91.65
17781;BME280;8498;52.516;13.790;2023-02-15T20:30:39;101877.50;;;2.37;91.18
17781;BME280;8498;52.516;13.790;2023-02-15T20:36:02;101870.63;;;2.28;91.60
17781;BME280;8498;52.516;13.790;2023-02-15T20:41:25;101864.53;;;2.26;91.46
17781;BME280;8498;52.516;13.790;2023-02-15T20:46:57;101859.31;;;2.25;90.97
17781;BME280;8498;52.516;13.790;2023-02-15T20:52:21;101862.94;;;2.17;91.44
17781;BME280;8498;52.516;13.790;2023-02-15T20:57:44;101866.50;;;2.10;90.93
17781;BME280;8498;52.516;13.790;2023-02-15T21:03:11;101876.19;;;2.05;91.49
17781;BME280;8498;52.516;13.790;2023-02-15T21:08:34;101874.53;;;1.98;91.66
17781;BME280;8498;52.516;13.790;2023-02-15T21:13:56;101877.25;;;1.92;91.52
17781;BME280;8498;52.516;13.790;2023-02-15T21:19:22;101885.19;;;1.86;92.15
17781;BME280;8498;52.516;13.790;2023-02-15T21:24:48;101884.34;;;1.84;91.80
17781;BME280;8498;52.516;13.790;2023-02-15T21:30:16;101876.47;;;1.86;91.41
17781;BME280;8498;52.516;13.790;2023-02-15T21:35:39;101879.97;;;1.86;90.83
17781;BME280;8498;52.516;13.790;2023-02-15T21:41:02;101882.63;;;1.80;90.86
17781;BME280;8498;52.516;13.790;2023-02-15T21:46:44;101880.88;;;1.82;91.09
17781;BME280;8498;52.516;13.790;2023-02-15T21:52:25;101886.16;;;1.79;90.97
17781;BME280;8498;52.516;13.790;2023-02-15T21:57:47;101877.47;;;1.75;90.90
17781;BME280;8498;52.516;13.790;2023-02-15T22:03:10;101872.28;;;1.71;90.45
17781;BME280;8498;52.516;13.790;2023-02-15T22:08:33;101874.06;;;1.69;90.51
17781;BME280;8498;52.516;13.790;2023-02-15T22:13:56;101876.78;;;1.61;90.35
17781;BME280;8498;52.516;13.790;2023-02-15T22:19:22;101869.69;;;1.69;90.09
17781;BME280;8498;52.516;13.790;2023-02-15T22:24:45;101873.28;;;1.61;89.85
17781;BME280;8498;52.516;13.790;2023-02-15T22:30:35;101874.13;;;1.63;89.77
17781;BME280;8498;52.516;13.790;2023-02-15T22:35:59;101880.28;;;1.59;89.50
17781;BME280;8498;52.516;13.790;2023-02-15T22:41:24;101870.84;;;1.45;89.78
17781;BME280;8498;52.516;13.790;2023-02-15T22:46:47;101868.31;;;1.36;90.31
17781;BME280;8498;52.516;13.790;2023-02-15T22:52:12;101869.19;;;1.35;90.16
17781;BME280;8498;52.516;13.790;2023-02-15T22:57:35;101865.78;;;1.30;90.09
17781;BME280;8498;52.516;13.790;2023-02-15T23:02:57;101853.56;;;1.32;89.55
17781;BME280;8498;52.516;13.790;2023-02-15T23:08:20;101851.84;;;1.28;89.97
17781;BME280;8498;52.516;13.790;2023-02-15T23:13:42;101854.47;;;1.27;89.51
17781;BME280;8498;52.516;13.790;2023-02-15T23:19:05;101848.38;;;1.26;89.85
17781;BME280;8498;52.516;13.790;2023-02-15T23:24:29;101837.91;;;1.26;89.54
17781;BME280;8498;52.516;13.790;2023-02-15T23:29:51;101839.66;;;1.26;89.72
17781;BME280;8498;52.516;13.790;2023-02-15T23:35:16;101838.84;;;1.21;90.37
17781;BME280;8498;52.516;13.790;2023-02-15T23:40:38;101840.53;;;1.25;89.62
17781;BME280;8498;52.516;13.790;2023-02-15T23:46:28;101851.94;;;1.22;89.45
17781;BME280;8498;52.516;13.790;2023-02-15T23:51:55;101852.81;;;1.21;89.06
17781;BME280;8498;52.516;13.790;2023-02-15T23:57:17;101841.47;;;1.22;89.40
